sensor_id;sensor_type;location;lat;lon;timestamp;P1;durP1;ratioP1;P2;durP2;ratioP2
73266;SDS011;61495;53.400;7.608;2024-03-17T00:02:26;5.88;;;2.25;;
73266;SDS011;61495;53.400;7.608;2024-03-17T00:05:54;7.63;;;2.35;;
73266;SDS011;61495;53.400;7.608;2024-03-17T00:09:19;7.28;;;1.90;;
73266;SDS011;61495;53.400;7.608;2024-03-17T00:12:44;8.15;;;2.25;;
73266;SDS011;61495;53.400;7.608;2024-03-17T00:16:08;6.57;;;2.28;;
73266;SDS011;61495;53.400;7.608;2024-03-17T00:19:32;7.40;;;2.05;;
73266;SDS011;61495;53.400;7.608;2024-03-17T00:22:57;8.60;;;2.08;;
73266;SDS011;61495;53.400;7.608;2024-03-17T00:26:22;4.95;;;2.00;;
73266;SDS011;61495;53.400;7.608;2024-03-17T00:29:46;6.63;;;1.83;;
73266;SDS011;61495;53.400;7.608;2024-03-17T00:33:11;8.25;;;2.65;;
73266;SDS011;61495;53.400;7.608;2024-03-17T00:36:35;8.18;;;2.20;;
73266;SDS011;61495;53.400;7.608;2024-03-17T00:40:00;8.00;;;2.08;;
73266;SDS011;61495;53.400;7.608;2024-03-17T00:43:24;6.20;;;2.88;;
73266;SDS011;61495;53.400;7.608;2024-03-17T00:46:48;8.93;;;2.47;;
73266;SDS011;61495;53.400;7.608;2024-03-17T00:50:12;7.20;;;2.88;;
73266;SDS011;61495;53.400;7.608;2024-03-17T00:53:36;6.90;;;2.42;;
73266;SDS011;61495;53.400;7.608;2024-03-17T00:57:00;6.72;;;2.50;;
73266;SDS011;61495;53.400;7.608;2024-03-17T01:00:23;7.03;;;2.20;;
73266;SDS011;61495;53.400;7.608;2024-03-17T01:03:47;7.13;;;2.58;;
73266;SDS011;61495;53.400;7.608;2024-03-17T01:07:17;12.20;;;2.80;;
73266;SDS011;61495;53.400;7.608;2024-03-17T01:10:41;7.38;;;1.85;;
73266;SDS011;61495;53.400;7.608;2024-03-17T01:14:05;6.28;;;2.15;;
73266;SDS011;61495;53.400;7.608;2024-03-17T01:17:32;7.22;;;1.92;;
73266;SDS011;61495;53.400;7.608;2024-03-17T01:20:57;9.05;;;2.20;;
73266;SDS011;61495;53.400;7.608;2024-03-17T01:24:21;7.63;;;2.58;;
73266;SDS011;61495;53.400;7.608;2024-03-17T01:27:45;8.25;;;2.50;;
73266;SDS011;61495;53.400;7.608;2024-03-17T01:31:09;9.43;;;2.20;;
73266;SDS011;61495;53.400;7.608;2024-03-17T01:34:32;7.13;;;2.28;;
73266;SDS011;61495;53.400;7.608;2024-03-17T01:38:01;6.82;;;2.15;;
73266;SDS011;61495;53.400;7.608;2024-03-17T01:41:27;5.80;;;2.08;;
73266;SDS011;61495;53.400;7.608;2024-03-17T01:44:51;5.68;;;2.13;;
73266;SDS011;61495;53.400;7.608;2024-03-17T01:48:15;6.40;;;2.42;;
73266;SDS011;61495;53.400;7.608;2024-03-17T01:51:40;10.77;;;3.00;;
73266;SDS011;61495;53.400;7.608;2024-03-17T01:55:04;7.30;;;2.45;;
73266;SDS011;61495;53.400;7.608;2024-03-17T01:58:30;6.68;;;2.92;;
73266;SDS011;61495;53.400;7.608;2024-03-17T02:01:54;10.80;;;3.08;;
73266;SDS011;61495;53.400;7.608;2024-03-17T02:05:18;8.27;;;2.95;;
73266;SDS011;61495;53.400;7.608;2024-03-17T02:08:52;8.77;;;3.35;;
73266;SDS011;61495;53.400;7.608;2024-03-17T02:12:16;9.95;;;2.45;;
73266;SDS011;61495;53.400;7.608;2024-03-17T02:15:40;7.47;;;2.25;;
73266;SDS011;61495;53.400;7.608;2024-03-17T02:19:04;7.43;;;3.17;;
73266;SDS011;61495;53.400;7.608;2024-03-17T02:22:32;8.40;;;2.13;;
73266;SDS011;61495;53.400;7.608;2024-03-17T02:25:58;4.75;;;2.10;;
73266;SDS011;61495;53.400;7.608;2024-03-17T02:29:22;5.70;;;2.20;;
73266;SDS011;61495;53.400;7.608;2024-03-17T02:32:54;8.68;;;3.42;;
73266;SDS011;61495;53.400;7.608;2024-03-17T02:36:38;11.32;;;2.55;;
73266;SDS011;61495;53.400;7.608;2024-03-17T02:40:18;9.75;;;2.47;;
73266;SDS011;61495;53.400;7.608;2024-03-17T02:44:03;8.85;;;2.85;;
73266;SDS011;61495;53.400;7.608;2024-03-17T02:47:48;7.35;;;3.30;;
73266;SDS011;61495;53.400;7.608;2024-03-17T02:51:36;4.22;;;2.05;;
73266;SDS011;61495;53.400;7.608;2024-03-17T02:55:21;8.48;;;2.67;;
73266;SDS011;61495;53.400;7.608;2024-03-17T02:59:05;4.82;;;3.05;;
73266;SDS011;61495;53.400;7.608;2024-03-17T03:02:50;4.70;;;2.28;;
73266;SDS011;61495;53.400;7.608;2024-03-17T03:06:35;7.85;;;2.47;;
73266;SDS011;61495;53.400;7.608;2024-03-17T03:10:22;5.65;;;2.45;;
73266;SDS011;61495;53.400;7.608;2024-03-17T03:13:46;6.90;;;2.53;;
73266;SDS011;61495;53.400;7.608;2024-03-17T03:17:10;9.85;;;2.42;;
73266;SDS011;61495;53.400;7.608;2024-03-17T03:20:33;7.20;;;1.92;;
73266;SDS011;61495;53.400;7.608;2024-03-17T03:23:57;7.07;;;1.90;;
73266;SDS011;61495;53.400;7.608;2024-03-17T03:27:21;8.57;;;2.75;;
73266;SDS011;61495;53.400;7.608;2024-03-17T03:30:45;6.45;;;2.38;;
73266;SDS011;61495;53.400;7.608;2024-03-17T03:34:09;6.22;;;2.35;;
73266;SDS011;61495;53.400;7.608;2024-03-17T03:37:33;6.88;;;2.42;;
73266;SDS011;61495;53.400;7.608;2024-03-17T03:40:58;8.27;;;2.40;;
73266;SDS011;61495;53.400;7.608;2024-03-17T03:44:22;6.88;;;2.88;;
73266;SDS011;61495;53.400;7.608;2024-03-17T03:47:46;6.60;;;2.30;;
73266;SDS011;61495;53.400;7.608;2024-03-17T03:51:10;7.28;;;2.72;;
73266;SDS011;61495;53.400;7.608;2024-03-17T03:54:34;5.03;;;2.72;;
73266;SDS011;61495;53.400;7.608;2024-03-17T03:57:58;5.20;;;1.92;;
73266;SDS011;61495;53.400;7.608;2024-03-17T04:01:22;4.47;;;1.83;;
73266;SDS011;61495;53.400;7.608;2024-03-17T04:04:46;6.75;;;2.53;;
73266;SDS011;61495;53.400;7.608;2024-03-17T04:08:15;8.85;;;2.20;;
73266;SDS011;61495;53.400;7.608;2024-03-17T04:11:39;6.50;;;1.98;;
73266;SDS011;61495;53.400;7.608;2024-03-17T04:15:03;7.03;;;2.33;;
73266;SDS011;61495;53.400;7.608;2024-03-17T04:18:31;6.18;;;1.83;;
73266;SDS011;61495;53.400;7.608;2024-03-17T04:21:55;6.53;;;2.00;;
73266;SDS011;61495;53.400;7.608;2024-03-17T04:25:19;8.48;;;2.42;;
73266;SDS011;61495;53.400;7.608;2024-03-17T04:28:43;6.90;;;2.60;;
73266;SDS011;61495;53.400;7.608;2024-03-17T04:32:07;7.93;;;2.40;;
73266;SDS011;61495;53.400;7.608;2024-03-17T04:35:35;5.65;;;2.25;;
73266;SDS011;61495;53.400;7.608;2024-03-17T04:38:59;7.63;;;1.83;;
73266;SDS011;61495;53.400;7.608;2024-03-17T04:42:23;6.57;;;2.70;;
73266;SDS011;61495;53.400;7.608;2024-03-17T04:45:47;9.45;;;2.47;;
73266;SDS011;61495;53.400;7.608;2024-03-17T04:49:11;10.48;;;2.67;;
73266;SDS011;61495;53.400;7.608;2024-03-17T04:52:35;7.40;;;2.80;;
73266;SDS011;61495;53.400;7.608;2024-03-17T04:56:02;6.00;;;2.53;;
73266;SDS011;61495;53.400;7.608;2024-03-17T04:59:26;7.57;;;2.92;;
73266;SDS011;61495;53.400;7.608;2024-03-17T05:02:50;6.38;;;3.05;;
73266;SDS011;61495;53.400;7.608;2024-03-17T05:06:21;6.18;;;2.78;;
73266;SDS011;61495;53.400;7.608;2024-03-17T05:09:45;6.38;;;2.53;;
73266;SDS011;61495;53.400;7.608;2024-03-17T05:13:09;7.25;;;2.83;;
73266;SDS011;61495;53.400;7.608;2024-03-17T05:16:33;7.88;;;2.58;;
73266;SDS011;61495;53.400;7.608;2024-03-17T05:19:57;4.78;;;2.50;;
73266;SDS011;61495;53.400;7.608;2024-03-17T05:23:25;6.70;;;3.13;;
73266;SDS011;61495;53.400;7.608;2024-03-17T05:26:49;7.18;;;2.78;;
73266;SDS011;61495;53.400;7.608;2024-03-17T05:30:13;6.40;;;2.45;;
73266;SDS011;61495;53.400;7.608;2024-03-17T05:33:42;7.45;;;2.60;;
73266;SDS011;61495;53.400;7.608;2024-03-17T05:37:08;4.90;;;2.50;;
73266;SDS011;61495;53.400;7.608;2024-03-17T05:40:35;7.07;;;2.90;;
73266;SDS011;61495;53.400;7.608;2024-03-17T05:43:59;7.32;;;3.25;;
73266;SDS011;61495;53.400;7.608;2024-03-17T05:47:24;7.82;;;3.00;;
73266;SDS011;61495;53.400;7.608;2024-03-17T05:50:49;7.20;;;3.58;;
73266;SDS011;61495;53.400;7.608;2024-03-17T05:54:13;7.10;;;3.08;;
73266;SDS011;61495;53.400;7.608;2024-03-17T05:57:37;8.95;;;3.08;;
73266;SDS011;61495;53.400;7.608;2024-03-17T06:01:02;9.40;;;3.47;;
73266;SDS011;61495;53.400;7.608;2024-03-17T06:04:26;7.78;;;3.65;;
73266;SDS011;61495;53.400;7.608;2024-03-17T06:07:50;9.23;;;3.20;;
73266;SDS011;61495;53.400;7.608;2024-03-17T06:11:14;8.15;;;3.70;;
73266;SDS011;61495;53.400;7.608;2024-03-17T06:14:38;9.27;;;3.22;;
73266;SDS011;61495;53.400;7.608;2024-03-17T06:18:02;8.32;;;3.30;;
73266;SDS011;61495;53.400;7.608;2024-03-17T06:21:28;8.10;;;3.75;;
73266;SDS011;61495;53.400;7.608;2024-03-17T06:24:52;7.82;;;3.30;;
73266;SDS011;61495;53.400;7.608;2024-03-17T06:28:16;9.80;;;3.63;;
73266;SDS011;61495;53.400;7.608;2024-03-17T06:31:40;11.68;;;4.03;;
73266;SDS011;61495;53.400;7.608;2024-03-17T06:35:08;8.60;;;3.53;;
73266;SDS011;61495;53.400;7.608;2024-03-17T06:38:35;9.90;;;4.05;;
73266;SDS011;61495;53.400;7.608;2024-03-17T06:41:59;8.73;;;3.50;;
73266;SDS011;61495;53.400;7.608;2024-03-17T06:45:22;7.82;;;4.28;;
73266;SDS011;61495;53.400;7.608;2024-03-17T06:48:46;12.10;;;3.97;;
73266;SDS011;61495;53.400;7.608;2024-03-17T06:52:10;9.45;;;3.83;;
73266;SDS011;61495;53.400;7.608;2024-03-17T06:55:34;7.90;;;3.22;;
73266;SDS011;61495;53.400;7.608;2024-03-17T06:58:58;6.75;;;3.38;;
73266;SDS011;61495;53.400;7.608;2024-03-17T07:02:22;8.75;;;3.83;;
73266;SDS011;61495;53.400;7.608;2024-03-17T07:05:51;7.70;;;3.78;;
73266;SDS011;61495;53.400;7.608;2024-03-17T07:09:15;8.52;;;3.58;;
73266;SDS011;61495;53.400;7.608;2024-03-17T07:12:40;11.65;;;3.85;;
73266;SDS011;61495;53.400;7.608;2024-03-17T07:16:06;10.68;;;2.95;;
73266;SDS011;61495;53.400;7.608;2024-03-17T07:19:30;8.77;;;3.63;;
73266;SDS011;61495;53.400;7.608;2024-03-17T07:22:57;9.52;;;3.30;;
73266;SDS011;61495;53.400;7.608;2024-03-17T07:26:26;6.75;;;3.28;;
73266;SDS011;61495;53.400;7.608;2024-03-17T07:29:50;8.68;;;2.78;;
73266;SDS011;61495;53.400;7.608;2024-03-17T07:33:15;6.47;;;3.08;;
73266;SDS011;61495;53.400;7.608;2024-03-17T07:36:39;9.85;;;2.83;;
73266;SDS011;61495;53.400;7.608;2024-03-17T07:40:04;8.77;;;3.58;;
73266;SDS011;61495;53.400;7.608;2024-03-17T07:43:33;9.20;;;2.90;;
73266;SDS011;61495;53.400;7.608;2024-03-17T07:47:00;9.05;;;2.90;;
73266;SDS011;61495;53.400;7.608;2024-03-17T07:50:24;8.93;;;3.40;;
73266;SDS011;61495;53.400;7.608;2024-03-17T07:53:48;9.50;;;3.25;;
73266;SDS011;61495;53.400;7.608;2024-03-17T07:57:12;12.73;;;3.53;;
73266;SDS011;61495;53.400;7.608;2024-03-17T08:00:36;11.20;;;2.65;;
73266;SDS011;61495;53.400;7.608;2024-03-17T08:03:59;5.75;;;2.45;;
73266;SDS011;61495;53.400;7.608;2024-03-17T08:07:23;6.85;;;2.38;;
73266;SDS011;61495;53.400;7.608;2024-03-17T08:10:47;10.82;;;2.78;;
73266;SDS011;61495;53.400;7.608;2024-03-17T08:14:12;5.20;;;2.42;;
73266;SDS011;61495;53.400;7.608;2024-03-17T08:17:36;9.98;;;2.20;;
73266;SDS011;61495;53.400;7.608;2024-03-17T08:21:00;6.75;;;2.05;;
73266;SDS011;61495;53.400;7.608;2024-03-17T08:24:25;5.38;;;2.10;;
73266;SDS011;61495;53.400;7.608;2024-03-17T08:27:49;6.22;;;1.73;;
73266;SDS011;61495;53.400;7.608;2024-03-17T08:31:13;8.60;;;2.03;;
73266;SDS011;61495;53.400;7.608;2024-03-17T08:34:36;5.18;;;2.03;;
73266;SDS011;61495;53.400;7.608;2024-03-17T08:38:02;7.13;;;1.73;;
73266;SDS011;61495;53.400;7.608;2024-03-17T08:41:26;10.68;;;1.77;;
73266;SDS011;61495;53.400;7.608;2024-03-17T08:44:50;8.18;;;1.45;;
73266;SDS011;61495;53.400;7.608;2024-03-17T08:48:26;7.00;;;1.70;;
73266;SDS011;61495;53.400;7.608;2024-03-17T08:51:51;5.75;;;2.00;;
73266;SDS011;61495;53.400;7.608;2024-03-17T08:55:16;7.90;;;1.85;;
73266;SDS011;61495;53.400;7.608;2024-03-17T08:58:39;6.35;;;1.65;;
73266;SDS011;61495;53.400;7.608;2024-03-17T09:02:03;5.78;;;1.90;;
73266;SDS011;61495;53.400;7.608;2024-03-17T09:05:28;6.85;;;1.40;;
73266;SDS011;61495;53.400;7.608;2024-03-17T09:08:54;7.82;;;1.85;;
73266;SDS011;61495;53.400;7.608;2024-03-17T09:12:19;5.50;;;1.48;;
73266;SDS011;61495;53.400;7.608;2024-03-17T09:15:54;9.30;;;1.70;;
73266;SDS011;61495;53.400;7.608;2024-03-17T09:19:18;7.82;;;1.60;;
73266;SDS011;61495;53.400;7.608;2024-03-17T09:22:42;7.88;;;2.30;;
73266;SDS011;61495;53.400;7.608;2024-03-17T09:26:06;6.28;;;1.75;;
73266;SDS011;61495;53.400;7.608;2024-03-17T09:29:30;5.72;;;1.60;;
73266;SDS011;61495;53.400;7.608;2024-03-17T09:32:54;6.15;;;2.00;;
73266;SDS011;61495;53.400;7.608;2024-03-17T09:36:18;6.00;;;1.83;;
73266;SDS011;61495;53.400;7.608;2024-03-17T09:39:42;5.50;;;1.23;;
73266;SDS011;61495;53.400;7.608;2024-03-17T09:43:11;6.47;;;2.00;;
73266;SDS011;61495;53.400;7.608;2024-03-17T09:46:38;5.38;;;2.00;;
73266;SDS011;61495;53.400;7.608;2024-03-17T09:50:02;7.50;;;1.23;;
73266;SDS011;61495;53.400;7.608;2024-03-17T09:53:30;6.50;;;1.38;;
73266;SDS011;61495;53.400;7.608;2024-03-17T09:56:55;6.45;;;2.10;;
73266;SDS011;61495;53.400;7.608;2024-03-17T10:00:19;3.70;;;1.30;;
73266;SDS011;61495;53.400;7.608;2024-03-17T10:03:44;6.57;;;1.60;;
73266;SDS011;61495;53.400;7.608;2024-03-17T10:10:45;7.95;;;1.83;;
73266;SDS011;61495;53.400;7.608;2024-03-17T10:14:16;5.82;;;1.73;;
73266;SDS011;61495;53.400;7.608;2024-03-17T10:21:04;3.88;;;1.50;;
73266;SDS011;61495;53.400;7.608;2024-03-17T10:24:48;38.03;;;17.90;;
73266;SDS011;61495;53.400;7.608;2024-03-17T10:28:22;48.97;;;27.35;;
73266;SDS011;61495;53.400;7.608;2024-03-17T10:31:53;26.85;;;13.77;;
73266;SDS011;61495;53.400;7.608;2024-03-17T10:35:25;9.30;;;4.22;;
73266;SDS011;61495;53.400;7.608;2024-03-17T10:38:52;7.93;;;2.22;;
73266;SDS011;61495;53.400;7.608;2024-03-17T10:42:29;5.35;;;1.60;;
73266;SDS011;61495;53.400;7.608;2024-03-17T10:45:53;6.50;;;2.00;;
73266;SDS011;61495;53.400;7.608;2024-03-17T10:49:19;4.85;;;1.65;;
73266;SDS011;61495;53.400;7.608;2024-03-17T10:52:44;5.90;;;1.25;;
73266;SDS011;61495;53.400;7.608;2024-03-17T10:56:10;6.28;;;3.15;;
73266;SDS011;61495;53.400;7.608;2024-03-17T10:59:59;7.70;;;1.73;;
73266;SDS011;61495;53.400;7.608;2024-03-17T11:03:26;4.00;;;1.15;;
73266;SDS011;61495;53.400;7.608;2024-03-17T11:06:50;7.57;;;2.08;;
73266;SDS011;61495;53.400;7.608;2024-03-17T11:10:27;4.93;;;1.60;;
73266;SDS011;61495;53.400;7.608;2024-03-17T11:14:15;6.43;;;1.58;;
73266;SDS011;61495;53.400;7.608;2024-03-17T11:17:52;6.38;;;3.47;;
73266;SDS011;61495;53.400;7.608;2024-03-17T11:21:24;7.50;;;2.13;;
73266;SDS011;61495;53.400;7.608;2024-03-17T11:28:56;5.80;;;1.83;;
73266;SDS011;61495;53.400;7.608;2024-03-17T11:32:24;5.95;;;1.98;;
73266;SDS011;61495;53.400;7.608;2024-03-17T11:40:01;3.88;;;1.38;;
73266;SDS011;61495;53.400;7.608;2024-03-17T11:43:44;7.35;;;2.08;;
73266;SDS011;61495;53.400;7.608;2024-03-17T11:47:18;8.93;;;1.85;;
73266;SDS011;61495;53.400;7.608;2024-03-17T11:50:42;9.38;;;2.40;;
73266;SDS011;61495;53.400;7.608;2024-03-17T11:54:08;8.07;;;1.92;;
73266;SDS011;61495;53.400;7.608;2024-03-17T11:57:43;6.22;;;2.47;;
73266;SDS011;61495;53.400;7.608;2024-03-17T12:01:07;6.97;;;2.60;;
73266;SDS011;61495;53.400;7.608;2024-03-17T12:04:38;6.95;;;2.40;;
73266;SDS011;61495;53.400;7.608;2024-03-17T12:08:05;8.48;;;2.53;;
73266;SDS011;61495;53.400;7.608;2024-03-17T12:15:22;8.32;;;2.50;;
73266;SDS011;61495;53.400;7.608;2024-03-17T12:18:46;11.32;;;2.58;;
73266;SDS011;61495;53.400;7.608;2024-03-17T12:22:14;7.32;;;2.60;;
73266;SDS011;61495;53.400;7.608;2024-03-17T12:25:48;7.05;;;2.92;;
73266;SDS011;61495;53.400;7.608;2024-03-17T12:29:46;8.80;;;3.13;;
73266;SDS011;61495;53.400;7.608;2024-03-17T12:33:03;8.00;;;3.00;;
73266;SDS011;61495;53.400;7.608;2024-03-17T12:36:28;6.45;;;3.20;;
73266;SDS011;61495;53.400;7.608;2024-03-17T12:40:01;9.25;;;2.90;;
73266;SDS011;61495;53.400;7.608;2024-03-17T12:43:25;7.32;;;3.05;;
73266;SDS011;61495;53.400;7.608;2024-03-17T12:46:59;6.22;;;2.60;;
73266;SDS011;61495;53.400;7.608;2024-03-17T12:50:24;9.25;;;3.60;;
73266;SDS011;61495;53.400;7.608;2024-03-17T12:53:48;9.02;;;3.58;;
73266;SDS011;61495;53.400;7.608;2024-03-17T12:57:44;8.18;;;2.83;;
73266;SDS011;61495;53.400;7.608;2024-03-17T13:01:27;8.18;;;3.10;;
73266;SDS011;61495;53.400;7.608;2024-03-17T13:08:48;7.63;;;3.25;;
73266;SDS011;61495;53.400;7.608;2024-03-17T13:12:13;8.25;;;3.30;;
73266;SDS011;61495;53.400;7.608;2024-03-17T13:15:40;6.85;;;3.25;;
73266;SDS011;61495;53.400;7.608;2024-03-17T13:19:05;7.45;;;3.55;;
73266;SDS011;61495;53.400;7.608;2024-03-17T13:22:31;8.77;;;3.03;;
73266;SDS011;61495;53.400;7.608;2024-03-17T13:25:55;8.85;;;3.67;;
73266;SDS011;61495;53.400;7.608;2024-03-17T13:29:21;8.93;;;3.38;;
73266;SDS011;61495;53.400;7.608;2024-03-17T13:32:49;9.30;;;3.47;;
73266;SDS011;61495;53.400;7.608;2024-03-17T13:36:14;8.90;;;3.40;;
73266;SDS011;61495;53.400;7.608;2024-03-17T13:39:38;7.15;;;2.75;;
73266;SDS011;61495;53.400;7.608;2024-03-17T13:43:05;7.78;;;3.22;;
73266;SDS011;61495;53.400;7.608;2024-03-17T13:46:29;7.72;;;3.00;;
73266;SDS011;61495;53.400;7.608;2024-03-17T13:49:53;6.85;;;3.15;;
73266;SDS011;61495;53.400;7.608;2024-03-17T13:53:17;6.18;;;2.97;;
73266;SDS011;61495;53.400;7.608;2024-03-17T13:56:40;7.65;;;2.80;;
73266;SDS011;61495;53.400;7.608;2024-03-17T14:00:05;8.40;;;2.88;;
73266;SDS011;61495;53.400;7.608;2024-03-17T14:03:29;6.90;;;2.63;;
73266;SDS011;61495;53.400;7.608;2024-03-17T14:06:53;7.28;;;3.08;;
73266;SDS011;61495;53.400;7.608;2024-03-17T14:10:19;8.75;;;3.00;;
73266;SDS011;61495;53.400;7.608;2024-03-17T14:13:43;5.93;;;2.80;;
73266;SDS011;61495;53.400;7.608;2024-03-17T14:17:08;7.20;;;3.67;;
73266;SDS011;61495;53.400;7.608;2024-03-17T14:20:32;8.05;;;2.85;;
73266;SDS011;61495;53.400;7.608;2024-03-17T14:23:56;5.93;;;2.65;;
73266;SDS011;61495;53.400;7.608;2024-03-17T14:27:20;8.02;;;2.95;;
73266;SDS011;61495;53.400;7.608;2024-03-17T14:30:44;7.00;;;3.95;;
73266;SDS011;61495;53.400;7.608;2024-03-17T14:34:10;5.22;;;2.83;;
73266;SDS011;61495;53.400;7.608;2024-03-17T14:37:45;6.10;;;2.63;;
73266;SDS011;61495;53.400;7.608;2024-03-17T14:41:09;7.40;;;3.08;;
73266;SDS011;61495;53.400;7.608;2024-03-17T14:44:36;5.72;;;2.50;;
73266;SDS011;61495;53.400;7.608;2024-03-17T14:48:00;7.55;;;3.08;;
73266;SDS011;61495;53.400;7.608;2024-03-17T14:51:24;8.48;;;3.47;;
73266;SDS011;61495;53.400;7.608;2024-03-17T14:54:49;7.30;;;3.08;;
73266;SDS011;61495;53.400;7.608;2024-03-17T14:58:13;5.10;;;2.85;;
73266;SDS011;61495;53.400;7.608;2024-03-17T15:01:37;9.05;;;3.20;;
73266;SDS011;61495;53.400;7.608;2024-03-17T15:05:01;7.35;;;2.95;;
73266;SDS011;61495;53.400;7.608;2024-03-17T15:08:25;8.60;;;3.60;;
73266;SDS011;61495;53.400;7.608;2024-03-17T15:11:49;6.65;;;3.10;;
73266;SDS011;61495;53.400;7.608;2024-03-17T15:15:13;7.25;;;3.17;;
73266;SDS011;61495;53.400;7.608;2024-03-17T15:18:40;6.30;;;2.50;;
73266;SDS011;61495;53.400;7.608;2024-03-17T15:22:07;7.78;;;2.63;;
73266;SDS011;61495;53.400;7.608;2024-03-17T15:25:30;6.25;;;3.03;;
73266;SDS011;61495;53.400;7.608;2024-03-17T15:28:54;6.80;;;3.03;;
73266;SDS011;61495;53.400;7.608;2024-03-17T15:32:18;6.88;;;3.53;;
73266;SDS011;61495;53.400;7.608;2024-03-17T15:35:42;5.03;;;2.90;;
73266;SDS011;61495;53.400;7.608;2024-03-17T15:39:07;6.63;;;3.33;;
73266;SDS011;61495;53.400;7.608;2024-03-17T15:42:32;6.50;;;2.72;;
73266;SDS011;61495;53.400;7.608;2024-03-17T15:45:58;10.07;;;3.60;;
73266;SDS011;61495;53.400;7.608;2024-03-17T15:49:22;9.18;;;2.72;;
73266;SDS011;61495;53.400;7.608;2024-03-17T15:52:45;8.85;;;2.85;;
73266;SDS011;61495;53.400;7.608;2024-03-17T15:56:10;6.63;;;3.08;;
73266;SDS011;61495;53.400;7.608;2024-03-17T15:59:33;9.38;;;3.15;;
73266;SDS011;61495;53.400;7.608;2024-03-17T16:02:57;8.10;;;2.92;;
73266;SDS011;61495;53.400;7.608;2024-03-17T16:06:22;12.50;;;3.33;;
73266;SDS011;61495;53.400;7.608;2024-03-17T16:09:46;8.43;;;3.40;;
73266;SDS011;61495;53.400;7.608;2024-03-17T16:13:20;8.43;;;3.40;;
73266;SDS011;61495;53.400;7.608;2024-03-17T16:20:10;7.40;;;3.00;;
73266;SDS011;61495;53.400;7.608;2024-03-17T16:23:44;5.10;;;2.70;;
73266;SDS011;61495;53.400;7.608;2024-03-17T16:27:08;6.28;;;2.92;;
73266;SDS011;61495;53.400;7.608;2024-03-17T16:30:38;8.13;;;2.58;;
73266;SDS011;61495;53.400;7.608;2024-03-17T16:34:02;9.18;;;3.67;;
73266;SDS011;61495;53.400;7.608;2024-03-17T16:37:26;8.00;;;3.10;;
73266;SDS011;61495;53.400;7.608;2024-03-17T16:40:52;8.05;;;3.00;;
73266;SDS011;61495;53.400;7.608;2024-03-17T16:44:20;8.98;;;3.40;;
73266;SDS011;61495;53.400;7.608;2024-03-17T16:47:50;9.65;;;3.30;;
73266;SDS011;61495;53.400;7.608;2024-03-17T16:51:14;7.72;;;2.92;;
73266;SDS011;61495;53.400;7.608;2024-03-17T16:54:39;7.47;;;3.10;;
73266;SDS011;61495;53.400;7.608;2024-03-17T16:58:03;7.65;;;2.00;;
73266;SDS011;61495;53.400;7.608;2024-03-17T17:01:27;9.52;;;2.88;;
73266;SDS011;61495;53.400;7.608;2024-03-17T17:04:52;9.52;;;3.25;;
73266;SDS011;61495;53.400;7.608;2024-03-17T17:08:15;8.35;;;2.85;;
73266;SDS011;61495;53.400;7.608;2024-03-17T17:11:40;8.65;;;4.10;;
73266;SDS011;61495;53.400;7.608;2024-03-17T17:15:17;7.50;;;2.78;;
73266;SDS011;61495;53.400;7.608;2024-03-17T17:22:12;8.13;;;3.20;;
73266;SDS011;61495;53.400;7.608;2024-03-17T17:25:40;6.03;;;2.97;;
73266;SDS011;61495;53.400;7.608;2024-03-17T17:29:04;5.25;;;2.80;;
73266;SDS011;61495;53.400;7.608;2024-03-17T17:32:32;5.22;;;2.83;;
73266;SDS011;61495;53.400;7.608;2024-03-17T17:36:03;6.07;;;2.70;;
73266;SDS011;61495;53.400;7.608;2024-03-17T17:39:30;10.32;;;2.65;;
73266;SDS011;61495;53.400;7.608;2024-03-17T17:42:54;6.93;;;3.20;;
73266;SDS011;61495;53.400;7.608;2024-03-17T17:46:22;6.03;;;2.17;;
73266;SDS011;61495;53.400;7.608;2024-03-17T17:49:49;6.28;;;2.25;;
73266;SDS011;61495;53.400;7.608;2024-03-17T17:53:18;9.70;;;2.72;;
73266;SDS011;61495;53.400;7.608;2024-03-17T17:56:43;6.75;;;2.05;;
73266;SDS011;61495;53.400;7.608;2024-03-17T18:00:07;9.77;;;2.50;;
73266;SDS011;61495;53.400;7.608;2024-03-17T18:03:34;4.72;;;2.03;;
73266;SDS011;61495;53.400;7.608;2024-03-17T18:06:59;5.65;;;2.25;;
73266;SDS011;61495;53.400;7.608;2024-03-17T18:10:23;5.72;;;2.10;;
73266;SDS011;61495;53.400;7.608;2024-03-17T18:13:47;5.53;;;2.30;;
73266;SDS011;61495;53.400;7.608;2024-03-17T18:17:11;5.35;;;2.33;;
73266;SDS011;61495;53.400;7.608;2024-03-17T18:20:35;7.18;;;2.33;;
73266;SDS011;61495;53.400;7.608;2024-03-17T18:23:59;7.47;;;2.38;;
73266;SDS011;61495;53.400;7.608;2024-03-17T18:27:23;6.40;;;2.10;;
73266;SDS011;61495;53.400;7.608;2024-03-17T18:30:47;6.00;;;2.30;;
73266;SDS011;61495;53.400;7.608;2024-03-17T18:34:11;5.93;;;1.98;;
73266;SDS011;61495;53.400;7.608;2024-03-17T18:37:35;5.57;;;1.80;;
73266;SDS011;61495;53.400;7.608;2024-03-17T18:41:00;6.20;;;1.95;;
73266;SDS011;61495;53.400;7.608;2024-03-17T18:44:24;7.13;;;2.20;;
73266;SDS011;61495;53.400;7.608;2024-03-17T18:47:48;8.93;;;2.80;;
73266;SDS011;61495;53.400;7.608;2024-03-17T18:51:15;6.95;;;2.47;;
73266;SDS011;61495;53.400;7.608;2024-03-17T18:54:40;7.03;;;2.47;;
73266;SDS011;61495;53.400;7.608;2024-03-17T18:58:04;4.32;;;1.88;;
73266;SDS011;61495;53.400;7.608;2024-03-17T19:01:28;6.32;;;2.45;;
73266;SDS011;61495;53.400;7.608;2024-03-17T19:04:57;5.38;;;1.90;;
73266;SDS011;61495;53.400;7.608;2024-03-17T19:08:26;3.92;;;2.05;;
73266;SDS011;61495;53.400;7.608;2024-03-17T19:11:50;4.90;;;1.95;;
73266;SDS011;61495;53.400;7.608;2024-03-17T19:15:17;5.60;;;2.17;;
73266;SDS011;61495;53.400;7.608;2024-03-17T19:18:42;6.80;;;2.00;;
73266;SDS011;61495;53.400;7.608;2024-03-17T19:22:07;4.72;;;1.95;;
73266;SDS011;61495;53.400;7.608;2024-03-17T19:25:31;7.75;;;2.45;;
73266;SDS011;61495;53.400;7.608;2024-03-17T19:28:55;4.80;;;1.70;;
73266;SDS011;61495;53.400;7.608;2024-03-17T19:32:19;5.13;;;2.00;;
73266;SDS011;61495;53.400;7.608;2024-03-17T19:35:43;10.85;;;2.00;;
73266;SDS011;61495;53.400;7.608;2024-03-17T19:39:08;6.28;;;1.92;;
73266;SDS011;61495;53.400;7.608;2024-03-17T19:42:33;7.50;;;2.47;;
73266;SDS011;61495;53.400;7.608;2024-03-17T19:46:08;5.38;;;2.35;;
73266;SDS011;61495;53.400;7.608;2024-03-17T19:49:32;5.35;;;1.90;;
73266;SDS011;61495;53.400;7.608;2024-03-17T19:52:56;7.63;;;2.35;;
73266;SDS011;61495;53.400;7.608;2024-03-17T19:56:20;6.25;;;2.72;;
73266;SDS011;61495;53.400;7.608;2024-03-17T19:59:45;8.68;;;2.38;;
73266;SDS011;61495;53.400;7.608;2024-03-17T20:03:09;5.47;;;2.30;;
73266;SDS011;61495;53.400;7.608;2024-03-17T20:06:36;7.57;;;3.33;;
73266;SDS011;61495;53.400;7.608;2024-03-17T20:10:01;3.92;;;2.67;;
73266;SDS011;61495;53.400;7.608;2024-03-17T20:13:26;7.22;;;2.85;;
73266;SDS011;61495;53.400;7.608;2024-03-17T20:16:50;9.25;;;3.05;;
73266;SDS011;61495;53.400;7.608;2024-03-17T20:20:13;5.20;;;2.75;;
73266;SDS011;61495;53.400;7.608;2024-03-17T20:23:37;7.70;;;2.65;;
73266;SDS011;61495;53.400;7.608;2024-03-17T20:27:05;9.43;;;3.45;;
73266;SDS011;61495;53.400;7.608;2024-03-17T20:30:29;5.85;;;2.58;;
73266;SDS011;61495;53.400;7.608;2024-03-17T20:33:56;5.93;;;2.65;;
73266;SDS011;61495;53.400;7.608;2024-03-17T20:37:21;7.30;;;2.58;;
73266;SDS011;61495;53.400;7.608;2024-03-17T20:40:45;8.90;;;2.65;;
73266;SDS011;61495;53.400;7.608;2024-03-17T20:44:09;6.97;;;2.63;;
73266;SDS011;61495;53.400;7.608;2024-03-17T20:47:34;6.80;;;3.53;;
73266;SDS011;61495;53.400;7.608;2024-03-17T20:50:58;6.30;;;2.42;;
73266;SDS011;61495;53.400;7.608;2024-03-17T20:54:22;6.93;;;2.75;;
73266;SDS011;61495;53.400;7.608;2024-03-17T20:57:48;7.80;;;2.30;;
73266;SDS011;61495;53.400;7.608;2024-03-17T21:01:12;11.05;;;2.78;;
73266;SDS011;61495;53.400;7.608;2024-03-17T21:04:36;6.70;;;2.75;;
73266;SDS011;61495;53.400;7.608;2024-03-17T21:08:01;7.20;;;3.40;;
73266;SDS011;61495;53.400;7.608;2024-03-17T21:11:25;7.90;;;2.65;;
73266;SDS011;61495;53.400;7.608;2024-03-17T21:14:51;6.07;;;2.72;;